sensor_id;sensor_type;location;lat;lon;timestamp;P1;durP1;ratioP1;P2;durP2;ratioP2
72117;SDS011;59992;47.490;8.736;2023-11-18T00:02:20;3.00;;;1.00;;
72117;SDS011;59992;47.490;8.736;2023-11-18T00:05:09;2.00;;;0.90;;
72117;SDS011;59992;47.490;8.736;2023-11-18T00:07:57;1.00;;;0.60;;
72117;SDS011;59992;47.490;8.736;2023-11-18T00:10:45;1.50;;;1.10;;
72117;SDS011;59992;47.490;8.736;2023-11-18T00:13:34;3.10;;;1.10;;
72117;SDS011;59992;47.490;8.736;2023-11-18T00:16:25;1.30;;;0.90;;
72117;SDS011;59992;47.490;8.736;2023-11-18T00:19:13;2.30;;;1.30;;
72117;SDS011;59992;47.490;8.736;2023-11-18T00:22:02;2.80;;;0.80;;
72117;SDS011;59992;47.490;8.736;2023-11-18T00:24:50;2.00;;;1.10;;
72117;SDS011;59992;47.490;8.736;2023-11-18T00:27:39;2.10;;;1.00;;
72117;SDS011;59992;47.490;8.736;2023-11-18T00:30:27;2.50;;;1.30;;
72117;SDS011;59992;47.490;8.736;2023-11-18T00:33:15;3.20;;;1.20;;
72117;SDS011;59992;47.490;8.736;2023-11-18T00:36:05;2.00;;;1.20;;
72117;SDS011;59992;47.490;8.736;2023-11-18T00:38:54;2.00;;;1.30;;
72117;SDS011;59992;47.490;8.736;2023-11-18T00:41:43;2.90;;;1.10;;
72117;SDS011;59992;47.490;8.736;2023-11-18T00:44:31;3.30;;;1.40;;
72117;SDS011;59992;47.490;8.736;2023-11-18T00:47:19;3.50;;;1.60;;
72117;SDS011;59992;47.490;8.736;2023-11-18T00:50:09;3.00;;;1.80;;
72117;SDS011;59992;47.490;8.736;2023-11-18T00:52:58;5.00;;;1.60;;
72117;SDS011;59992;47.490;8.736;2023-11-18T00:55:46;3.20;;;1.60;;
72117;SDS011;59992;47.490;8.736;2023-11-18T00:58:36;2.90;;;1.70;;
72117;SDS011;59992;47.490;8.736;2023-11-18T01:01:26;2.20;;;1.40;;
72117;SDS011;59992;47.490;8.736;2023-11-18T01:04:15;2.70;;;1.40;;
72117;SDS011;59992;47.490;8.736;2023-11-18T01:07:03;2.60;;;1.30;;
72117;SDS011;59992;47.490;8.736;2023-11-18T01:09:51;3.50;;;1.30;;
72117;SDS011;59992;47.490;8.736;2023-11-18T01:12:40;2.10;;;1.10;;
72117;SDS011;59992;47.490;8.736;2023-11-18T01:15:30;2.00;;;1.30;;
72117;SDS011;59992;47.490;8.736;2023-11-18T01:18:19;2.90;;;1.10;;
72117;SDS011;59992;47.490;8.736;2023-11-18T01:21:08;3.00;;;1.00;;
72117;SDS011;59992;47.490;8.736;2023-11-18T01:23:56;3.40;;;1.30;;
72117;SDS011;59992;47.490;8.736;2023-11-18T01:26:45;2.50;;;1.10;;
72117;SDS011;59992;47.490;8.736;2023-11-18T01:29:33;1.80;;;1.00;;
72117;SDS011;59992;47.490;8.736;2023-11-18T01:32:22;1.90;;;1.00;;
72117;SDS011;59992;47.490;8.736;2023-11-18T01:35:10;2.90;;;0.80;;
72117;SDS011;59992;47.490;8.736;2023-11-18T01:37:59;1.10;;;0.80;;
72117;SDS011;59992;47.490;8.736;2023-11-18T01:40:47;2.50;;;1.00;;
72117;SDS011;59992;47.490;8.736;2023-11-18T01:43:35;2.00;;;0.90;;
72117;SDS011;59992;47.490;8.736;2023-11-18T01:46:23;1.90;;;1.30;;
72117;SDS011;59992;47.490;8.736;2023-11-18T01:49:12;9.40;;;1.70;;
72117;SDS011;59992;47.490;8.736;2023-11-18T01:52:01;2.20;;;1.50;;
72117;SDS011;59992;47.490;8.736;2023-11-18T01:54:50;2.70;;;1.60;;
72117;SDS011;59992;47.490;8.736;2023-11-18T01:57:41;2.40;;;1.40;;
72117;SDS011;59992;47.490;8.736;2023-11-18T02:00:32;2.50;;;1.10;;
72117;SDS011;59992;47.490;8.736;2023-11-18T02:03:20;2.40;;;1.10;;
72117;SDS011;59992;47.490;8.736;2023-11-18T02:06:09;2.70;;;1.10;;
72117;SDS011;59992;47.490;8.736;2023-11-18T02:08:57;2.10;;;1.10;;
72117;SDS011;59992;47.490;8.736;2023-11-18T02:11:48;2.10;;;1.10;;
72117;SDS011;59992;47.490;8.736;2023-11-18T02:14:41;1.90;;;0.80;;
72117;SDS011;59992;47.490;8.736;2023-11-18T02:17:32;2.10;;;1.00;;
72117;SDS011;59992;47.490;8.736;2023-11-18T02:20:21;1.10;;;0.80;;
72117;SDS011;59992;47.490;8.736;2023-11-18T02:23:10;1.30;;;0.80;;
72117;SDS011;59992;47.490;8.736;2023-11-18T02:25:59;1.50;;;0.80;;
72117;SDS011;59992;47.490;8.736;2023-11-18T02:28:47;1.20;;;0.70;;
72117;SDS011;59992;47.490;8.736;2023-11-18T02:31:36;1.10;;;0.80;;
72117;SDS011;59992;47.490;8.736;2023-11-18T02:34:27;1.90;;;0.80;;
72117;SDS011;59992;47.490;8.736;2023-11-18T02:37:18;1.40;;;0.80;;
72117;SDS011;59992;47.490;8.736;2023-11-18T02:40:08;2.60;;;0.90;;
72117;SDS011;59992;47.490;8.736;2023-11-18T02:43:01;0.90;;;0.70;;
72117;SDS011;59992;47.490;8.736;2023-11-18T02:45:52;1.90;;;0.90;;
72117;SDS011;59992;47.490;8.736;2023-11-18T02:48:41;1.30;;;0.70;;
72117;SDS011;59992;47.490;8.736;2023-11-18T02:51:30;1.70;;;1.10;;
72117;SDS011;59992;47.490;8.736;2023-11-18T02:54:20;1.90;;;0.90;;
72117;SDS011;59992;47.490;8.736;2023-11-18T02:57:09;1.10;;;0.70;;
72117;SDS011;59992;47.490;8.736;2023-11-18T03:00:00;1.60;;;1.00;;
72117;SDS011;59992;47.490;8.736;2023-11-18T03:02:50;1.40;;;1.00;;
72117;SDS011;59992;47.490;8.736;2023-11-18T03:05:39;1.80;;;1.00;;
72117;SDS011;59992;47.490;8.736;2023-11-18T03:08:28;1.60;;;0.60;;
72117;SDS011;59992;47.490;8.736;2023-11-18T03:11:16;3.20;;;1.00;;
72117;SDS011;59992;47.490;8.736;2023-11-18T03:14:05;2.00;;;1.20;;
72117;SDS011;59992;47.490;8.736;2023-11-18T03:16:56;2.00;;;1.20;;
72117;SDS011;59992;47.490;8.736;2023-11-18T03:19:45;2.90;;;1.00;;
72117;SDS011;59992;47.490;8.736;2023-11-18T03:22:33;1.80;;;1.10;;
72117;SDS011;59992;47.490;8.736;2023-11-18T03:25:21;1.50;;;0.90;;
72117;SDS011;59992;47.490;8.736;2023-11-18T03:28:09;1.50;;;1.00;;
72117;SDS011;59992;47.490;8.736;2023-11-18T03:30:57;1.90;;;1.30;;
72117;SDS011;59992;47.490;8.736;2023-11-18T03:33:46;1.60;;;0.90;;
72117;SDS011;59992;47.490;8.736;2023-11-18T03:36:34;4.70;;;1.20;;
72117;SDS011;59992;47.490;8.736;2023-11-18T03:39:23;1.60;;;1.10;;
72117;SDS011;59992;47.490;8.736;2023-11-18T03:42:11;1.30;;;0.90;;
72117;SDS011;59992;47.490;8.736;2023-11-18T03:45:00;2.80;;;1.30;;
72117;SDS011;59992;47.490;8.736;2023-11-18T03:47:48;2.20;;;1.30;;
72117;SDS011;59992;47.490;8.736;2023-11-18T03:50:38;2.10;;;1.10;;
72117;SDS011;59992;47.490;8.736;2023-11-18T03:53:26;2.50;;;1.30;;
72117;SDS011;59992;47.490;8.736;2023-11-18T03:56:16;3.10;;;1.70;;
72117;SDS011;59992;47.490;8.736;2023-11-18T03:59:05;5.60;;;2.00;;
72117;SDS011;59992;47.490;8.736;2023-11-18T04:01:53;5.30;;;2.40;;
72117;SDS011;59992;47.490;8.736;2023-11-18T04:04:41;4.50;;;2.20;;
72117;SDS011;59992;47.490;8.736;2023-11-18T04:07:33;5.70;;;2.60;;
72117;SDS011;59992;47.490;8.736;2023-11-18T04:10:23;4.80;;;2.10;;
72117;SDS011;59992;47.490;8.736;2023-11-18T04:13:11;5.40;;;2.20;;
72117;SDS011;59992;47.490;8.736;2023-11-18T04:16:00;4.70;;;2.00;;
72117;SDS011;59992;47.490;8.736;2023-11-18T04:18:50;4.10;;;2.00;;
72117;SDS011;59992;47.490;8.736;2023-11-18T04:21:38;5.40;;;2.50;;
72117;SDS011;59992;47.490;8.736;2023-11-18T04:24:26;5.20;;;2.60;;
72117;SDS011;59992;47.490;8.736;2023-11-18T04:27:15;5.40;;;2.70;;
72117;SDS011;59992;47.490;8.736;2023-11-18T04:30:04;6.80;;;2.70;;
72117;SDS011;59992;47.490;8.736;2023-11-18T04:32:55;6.30;;;2.20;;
72117;SDS011;59992;47.490;8.736;2023-11-18T04:35:43;3.90;;;1.70;;
72117;SDS011;59992;47.490;8.736;2023-11-18T04:38:34;5.80;;;2.20;;
72117;SDS011;59992;47.490;8.736;2023-11-18T04:41:22;4.00;;;2.00;;
72117;SDS011;59992;47.490;8.736;2023-11-18T04:44:10;4.30;;;2.20;;
72117;SDS011;59992;47.490;8.736;2023-11-18T04:46:58;4.30;;;1.80;;
72117;SDS011;59992;47.490;8.736;2023-11-18T04:49:48;3.40;;;1.50;;
72117;SDS011;59992;47.490;8.736;2023-11-18T04:52:36;3.00;;;1.70;;
72117;SDS011;59992;47.490;8.736;2023-11-18T04:55:24;3.80;;;1.60;;
72117;SDS011;59992;47.490;8.736;2023-11-18T04:58:13;4.00;;;2.00;;
72117;SDS011;59992;47.490;8.736;2023-11-18T05:01:02;3.80;;;1.60;;
72117;SDS011;59992;47.490;8.736;2023-11-18T05:03:51;3.70;;;1.90;;
72117;SDS011;59992;47.490;8.736;2023-11-18T05:06:39;5.30;;;1.70;;
72117;SDS011;59992;47.490;8.736;2023-11-18T05:09:27;4.90;;;1.90;;
72117;SDS011;59992;47.490;8.736;2023-11-18T05:12:15;5.20;;;2.00;;
72117;SDS011;59992;47.490;8.736;2023-11-18T05:15:05;3.30;;;1.70;;
72117;SDS011;59992;47.490;8.736;2023-11-18T05:17:55;2.80;;;1.50;;
72117;SDS011;59992;47.490;8.736;2023-11-18T05:20:43;4.40;;;1.60;;
72117;SDS011;59992;47.490;8.736;2023-11-18T05:23:33;2.80;;;1.70;;
72117;SDS011;59992;47.490;8.736;2023-11-18T05:26:22;2.70;;;1.50;;
72117;SDS011;59992;47.490;8.736;2023-11-18T05:29:10;2.30;;;1.40;;
72117;SDS011;59992;47.490;8.736;2023-11-18T05:32:03;3.40;;;1.80;;
72117;SDS011;59992;47.490;8.736;2023-11-18T05:34:52;7.00;;;1.90;;
72117;SDS011;59992;47.490;8.736;2023-11-18T05:37:41;2.30;;;1.30;;
72117;SDS011;59992;47.490;8.736;2023-11-18T05:40:30;3.20;;;1.40;;
72117;SDS011;59992;47.490;8.736;2023-11-18T05:43:18;5.20;;;2.00;;
72117;SDS011;59992;47.490;8.736;2023-11-18T05:46:08;4.30;;;1.80;;
72117;SDS011;59992;47.490;8.736;2023-11-18T05:49:05;4.60;;;2.30;;
72117;SDS011;59992;47.490;8.736;2023-11-18T05:51:54;4.20;;;2.50;;
72117;SDS011;59992;47.490;8.736;2023-11-18T05:54:43;4.20;;;2.20;;
72117;SDS011;59992;47.490;8.736;2023-11-18T05:57:32;4.30;;;1.90;;
72117;SDS011;59992;47.490;8.736;2023-11-18T06:00:22;6.10;;;3.60;;
72117;SDS011;59992;47.490;8.736;2023-11-18T06:03:11;5.90;;;3.80;;
72117;SDS011;59992;47.490;8.736;2023-11-18T06:05:59;6.80;;;4.30;;
72117;SDS011;59992;47.490;8.736;2023-11-18T06:08:47;11.80;;;7.70;;
72117;SDS011;59992;47.490;8.736;2023-11-18T06:11:36;12.50;;;7.20;;
72117;SDS011;59992;47.490;8.736;2023-11-18T06:14:27;9.30;;;6.30;;
72117;SDS011;59992;47.490;8.736;2023-11-18T06:17:16;9.30;;;6.60;;
72117;SDS011;59992;47.490;8.736;2023-11-18T06:20:06;7.70;;;4.60;;
72117;SDS011;59992;47.490;8.736;2023-11-18T06:22:57;6.60;;;4.20;;
72117;SDS011;59992;47.490;8.736;2023-11-18T06:25:45;6.70;;;4.00;;
72117;SDS011;59992;47.490;8.736;2023-11-18T06:28:33;6.10;;;3.30;;
72117;SDS011;59992;47.490;8.736;2023-11-18T06:31:22;6.30;;;3.50;;
72117;SDS011;59992;47.490;8.736;2023-11-18T06:34:10;5.30;;;3.40;;
72117;SDS011;59992;47.490;8.736;2023-11-18T06:36:59;5.30;;;3.40;;
72117;SDS011;59992;47.490;8.736;2023-11-18T06:39:48;7.20;;;3.10;;
72117;SDS011;59992;47.490;8.736;2023-11-18T06:42:37;5.70;;;2.90;;
72117;SDS011;59992;47.490;8.736;2023-11-18T06:45:26;4.90;;;2.90;;
72117;SDS011;59992;47.490;8.736;2023-11-18T06:48:14;8.80;;;3.20;;
72117;SDS011;59992;47.490;8.736;2023-11-18T06:51:06;7.50;;;3.70;;
72117;SDS011;59992;47.490;8.736;2023-11-18T06:53:55;6.60;;;3.20;;
72117;SDS011;59992;47.490;8.736;2023-11-18T06:56:44;7.10;;;3.10;;
72117;SDS011;59992;47.490;8.736;2023-11-18T06:59:32;7.40;;;3.60;;
72117;SDS011;59992;47.490;8.736;2023-11-18T07:02:21;10.00;;;4.40;;
72117;SDS011;59992;47.490;8.736;2023-11-18T07:05:10;10.00;;;3.60;;
72117;SDS011;59992;47.490;8.736;2023-11-18T07:07:59;12.50;;;5.00;;
72117;SDS011;59992;47.490;8.736;2023-11-18T07:10:47;11.50;;;4.80;;
72117;SDS011;59992;47.490;8.736;2023-11-18T07:13:35;7.80;;;3.90;;
72117;SDS011;59992;47.490;8.736;2023-11-18T07:16:25;12.70;;;5.20;;
72117;SDS011;59992;47.490;8.736;2023-11-18T07:19:14;8.70;;;3.50;;
72117;SDS011;59992;47.490;8.736;2023-11-18T07:22:06;10.10;;;3.80;;
72117;SDS011;59992;47.490;8.736;2023-11-18T07:24:54;7.60;;;4.10;;
72117;SDS011;59992;47.490;8.736;2023-11-18T07:27:42;7.70;;;3.30;;
72117;SDS011;59992;47.490;8.736;2023-11-18T07:30:30;9.30;;;4.20;;
72117;SDS011;59992;47.490;8.736;2023-11-18T07:33:19;7.70;;;4.00;;
72117;SDS011;59992;47.490;8.736;2023-11-18T07:36:08;6.20;;;3.20;;
72117;SDS011;59992;47.490;8.736;2023-11-18T07:38:58;6.60;;;3.70;;
72117;SDS011;59992;47.490;8.736;2023-11-18T07:41:47;6.50;;;3.60;;
72117;SDS011;59992;47.490;8.736;2023-11-18T07:44:35;9.40;;;4.80;;
72117;SDS011;59992;47.490;8.736;2023-11-18T07:47:25;10.40;;;5.10;;
72117;SDS011;59992;47.490;8.736;2023-11-18T07:50:14;6.80;;;3.70;;
72117;SDS011;59992;47.490;8.736;2023-11-18T07:53:03;8.50;;;4.20;;
72117;SDS011;59992;47.490;8.736;2023-11-18T07:55:53;8.20;;;4.20;;
72117;SDS011;59992;47.490;8.736;2023-11-18T07:58:42;8.20;;;4.40;;
72117;SDS011;59992;47.490;8.736;2023-11-18T08:01:32;10.40;;;4.70;;
72117;SDS011;59992;47.490;8.736;2023-11-18T08:04:21;13.00;;;6.20;;
72117;SDS011;59992;47.490;8.736;2023-11-18T08:07:09;15.00;;;7.70;;
72117;SDS011;59992;47.490;8.736;2023-11-18T08:09:57;12.80;;;6.70;;
72117;SDS011;59992;47.490;8.736;2023-11-18T08:12:46;11.50;;;5.30;;
72117;SDS011;59992;47.490;8.736;2023-11-18T08:15:34;16.20;;;8.00;;
72117;SDS011;59992;47.490;8.736;2023-11-18T08:18:26;18.80;;;8.60;;
72117;SDS011;59992;47.490;8.736;2023-11-18T08:21:17;17.60;;;8.80;;
72117;SDS011;59992;47.490;8.736;2023-11-18T08:24:07;15.90;;;7.90;;
72117;SDS011;59992;47.490;8.736;2023-11-18T08:26:55;13.30;;;6.80;;
72117;SDS011;59992;47.490;8.736;2023-11-18T08:29:43;16.30;;;8.10;;
72117;SDS011;59992;47.490;8.736;2023-11-18T08:32:35;14.50;;;7.80;;
72117;SDS011;59992;47.490;8.736;2023-11-18T08:35:23;14.00;;;7.10;;
72117;SDS011;59992;47.490;8.736;2023-11-18T08:38:11;13.30;;;7.00;;
72117;SDS011;59992;47.490;8.736;2023-11-18T08:40:59;13.90;;;6.50;;
72117;SDS011;59992;47.490;8.736;2023-11-18T08:43:48;13.00;;;7.20;;
72117;SDS011;59992;47.490;8.736;2023-11-18T08:46:36;17.50;;;8.70;;
72117;SDS011;59992;47.490;8.736;2023-11-18T08:49:25;14.20;;;7.80;;
72117;SDS011;59992;47.490;8.736;2023-11-18T08:52:20;15.90;;;8.90;;
72117;SDS011;59992;47.490;8.736;2023-11-18T08:55:10;12.80;;;7.40;;
72117;SDS011;59992;47.490;8.736;2023-11-18T08:58:04;15.10;;;9.40;;
72117;SDS011;59992;47.490;8.736;2023-11-18T09:01:02;13.70;;;7.90;;
72117;SDS011;59992;47.490;8.736;2023-11-18T09:03:52;11.60;;;6.70;;
72117;SDS011;59992;47.490;8.736;2023-11-18T09:06:40;10.50;;;6.10;;
72117;SDS011;59992;47.490;8.736;2023-11-18T09:09:29;10.50;;;6.00;;
72117;SDS011;59992;47.490;8.736;2023-11-18T09:12:20;7.50;;;4.80;;
72117;SDS011;59992;47.490;8.736;2023-11-18T09:15:09;9.50;;;5.90;;
72117;SDS011;59992;47.490;8.736;2023-11-18T09:18:04;9.20;;;5.80;;
72117;SDS011;59992;47.490;8.736;2023-11-18T09:20:56;9.50;;;5.60;;
72117;SDS011;59992;47.490;8.736;2023-11-18T09:23:47;7.80;;;5.00;;
72117;SDS011;59992;47.490;8.736;2023-11-18T09:26:36;7.40;;;4.60;;
72117;SDS011;59992;47.490;8.736;2023-11-18T09:29:24;4.90;;;3.40;;
72117;SDS011;59992;47.490;8.736;2023-11-18T09:32:13;7.40;;;3.90;;
72117;SDS011;59992;47.490;8.736;2023-11-18T09:35:01;5.10;;;3.10;;
72117;SDS011;59992;47.490;8.736;2023-11-18T09:37:55;5.40;;;3.20;;
72117;SDS011;59992;47.490;8.736;2023-11-18T09:40:43;4.20;;;2.50;;
72117;SDS011;59992;47.490;8.736;2023-11-18T09:43:34;4.40;;;2.30;;
72117;SDS011;59992;47.490;8.736;2023-11-18T09:46:29;3.70;;;2.60;;
72117;SDS011;59992;47.490;8.736;2023-11-18T09:49:21;5.10;;;2.90;;
72117;SDS011;59992;47.490;8.736;2023-11-18T09:52:20;4.70;;;3.00;;
72117;SDS011;59992;47.490;8.736;2023-11-18T09:55:13;6.80;;;3.10;;
72117;SDS011;59992;47.490;8.736;2023-11-18T09:58:12;8.50;;;2.90;;
72117;SDS011;59992;47.490;8.736;2023-11-18T10:01:07;4.80;;;2.90;;
72117;SDS011;59992;47.490;8.736;2023-11-18T10:04:00;7.70;;;3.40;;
72117;SDS011;59992;47.490;8.736;2023-11-18T10:06:52;4.90;;;3.00;;
72117;SDS011;59992;47.490;8.736;2023-11-18T10:09:43;5.40;;;3.60;;
72117;SDS011;59992;47.490;8.736;2023-11-18T10:12:32;4.20;;;3.00;;
72117;SDS011;59992;47.490;8.736;2023-11-18T10:15:24;5.80;;;3.30;;
72117;SDS011;59992;47.490;8.736;2023-11-18T10:18:14;4.50;;;3.10;;
72117;SDS011;59992;47.490;8.736;2023-11-18T10:21:09;5.00;;;3.10;;
72117;SDS011;59992;47.490;8.736;2023-11-18T10:24:01;6.80;;;3.30;;
72117;SDS011;59992;47.490;8.736;2023-11-18T10:26:55;6.20;;;3.30;;
72117;SDS011;59992;47.490;8.736;2023-11-18T10:29:43;6.00;;;3.50;;
72117;SDS011;59992;47.490;8.736;2023-11-18T10:32:33;6.70;;;3.20;;
72117;SDS011;59992;47.490;8.736;2023-11-18T10:35:23;6.50;;;3.50;;
72117;SDS011;59992;47.490;8.736;2023-11-18T10:38:14;6.60;;;3.60;;
72117;SDS011;59992;47.490;8.736;2023-11-18T10:41:03;6.80;;;3.70;;
72117;SDS011;59992;47.490;8.736;2023-11-18T10:44:04;5.30;;;3.50;;
72117;SDS011;59992;47.490;8.736;2023-11-18T10:46:53;4.50;;;3.20;;
72117;SDS011;59992;47.490;8.736;2023-11-18T10:49:45;5.20;;;3.60;;
72117;SDS011;59992;47.490;8.736;2023-11-18T10:52:38;5.20;;;3.50;;
72117;SDS011;59992;47.490;8.736;2023-11-18T10:55:34;7.00;;;3.70;;
72117;SDS011;59992;47.490;8.736;2023-11-18T10:58:23;4.50;;;3.20;;
72117;SDS011;59992;47.490;8.736;2023-11-18T11:01:12;6.60;;;3.90;;
72117;SDS011;59992;47.490;8.736;2023-11-18T11:04:00;6.50;;;3.70;;
72117;SDS011;59992;47.490;8.736;2023-11-18T11:06:50;6.20;;;3.90;;
72117;SDS011;59992;47.490;8.736;2023-11-18T11:09:43;5.40;;;3.70;;
72117;SDS011;59992;47.490;8.736;2023-11-18T11:12:33;5.90;;;3.90;;
72117;SDS011;59992;47.490;8.736;2023-11-18T11:15:41;5.60;;;3.90;;
72117;SDS011;59992;47.490;8.736;2023-11-18T11:18:31;6.10;;;3.60;;
72117;SDS011;59992;47.490;8.736;2023-11-18T11:21:25;5.90;;;4.00;;
72117;SDS011;59992;47.490;8.736;2023-11-18T11:24:20;5.10;;;3.60;;
72117;SDS011;59992;47.490;8.736;2023-11-18T11:27:22;5.10;;;3.60;;
72117;SDS011;59992;47.490;8.736;2023-11-18T11:30:22;5.00;;;3.40;;
72117;SDS011;59992;47.490;8.736;2023-11-18T11:33:22;6.70;;;3.50;;
72117;SDS011;59992;47.490;8.736;2023-11-18T11:36:18;5.00;;;3.30;;
72117;SDS011;59992;47.490;8.736;2023-11-18T11:39:10;5.80;;;3.80;;
72117;SDS011;59992;47.490;8.736;2023-11-18T11:42:01;7.20;;;4.20;;
72117;SDS011;59992;47.490;8.736;2023-11-18T11:44:50;5.30;;;3.60;;
72117;SDS011;59992;47.490;8.736;2023-11-18T11:47:42;5.70;;;3.90;;
72117;SDS011;59992;47.490;8.736;2023-11-18T11:50:32;7.50;;;3.90;;
72117;SDS011;59992;47.490;8.736;2023-11-18T11:53:26;6.40;;;3.50;;
72117;SDS011;59992;47.490;8.736;2023-11-18T11:56:38;5.40;;;3.70;;
72117;SDS011;59992;47.490;8.736;2023-11-18T11:59:35;5.70;;;4.10;;
72117;SDS011;59992;47.490;8.736;2023-11-18T12:02:48;5.60;;;3.90;;
72117;SDS011;59992;47.490;8.736;2023-11-18T12:05:39;6.20;;;4.20;;
72117;SDS011;59992;47.490;8.736;2023-11-18T12:08:33;7.60;;;3.90;;
72117;SDS011;59992;47.490;8.736;2023-11-18T12:11:34;7.40;;;4.10;;
72117;SDS011;59992;47.490;8.736;2023-11-18T12:14:26;6.20;;;3.70;;
72117;SDS011;59992;47.490;8.736;2023-11-18T12:17:27;5.90;;;4.30;;
72117;SDS011;59992;47.490;8.736;2023-11-18T12:23:33;5.80;;;3.70;;
72117;SDS011;59992;47.490;8.736;2023-11-18T12:26:38;5.30;;;3.50;;
72117;SDS011;59992;47.490;8.736;2023-11-18T12:29:33;6.60;;;4.20;;
72117;SDS011;59992;47.490;8.736;2023-11-18T12:35:40;6.00;;;4.00;;
72117;SDS011;59992;47.490;8.736;2023-11-18T12:42:08;6.40;;;4.40;;
72117;SDS011;59992;47.490;8.736;2023-11-18T12:45:05;7.60;;;4.50;;
72117;SDS011;59992;47.490;8.736;2023-11-18T12:48:07;8.50;;;4.60;;
72117;SDS011;59992;47.490;8.736;2023-11-18T12:51:01;9.90;;;5.30;;
72117;SDS011;59992;47.490;8.736;2023-11-18T12:53:49;6.90;;;5.00;;
72117;SDS011;59992;47.490;8.736;2023-11-18T12:56:40;8.60;;;5.10;;
72117;SDS011;59992;47.490;8.736;2023-11-18T12:59:30;6.30;;;4.60;;
72117;SDS011;59992;47.490;8.736;2023-11-18T13:02:19;9.00;;;5.20;;
72117;SDS011;59992;47.490;8.736;2023-11-18T13:05:08;8.90;;;5.10;;
72117;SDS011;59992;47.490;8.736;2023-11-18T13:07:56;7.60;;;5.30;;
72117;SDS011;59992;47.490;8.736;2023-11-18T13:10:48;7.90;;;5.10;;
72117;SDS011;59992;47.490;8.736;2023-11-18T13:13:37;7.00;;;4.70;;
72117;SDS011;59992;47.490;8.736;2023-11-18T13:16:25;7.70;;;5.20;;
72117;SDS011;59992;47.490;8.736;2023-11-18T13:19:23;7.70;;;5.10;;
72117;SDS011;59992;47.490;8.736;2023-11-18T13:22:13;6.90;;;4.90;;
72117;SDS011;59992;47.490;8.736;2023-11-18T13:25:01;7.40;;;5.00;;
72117;SDS011;59992;47.490;8.736;2023-11-18T13:27:51;7.50;;;5.40;;
72117;SDS011;59992;47.490;8.736;2023-11-18T13:30:41;7.00;;;5.30;;
72117;SDS011;59992;47.490;8.736;2023-11-18T13:33:11;7.60;;;5.40;;
72117;SDS011;59992;47.490;8.736;2023-11-18T13:35:40;7.00;;;4.90;;
72117;SDS011;59992;47.490;8.736;2023-11-18T13:38:09;7.30;;;4.90;;
72117;SDS011;59992;47.490;8.736;2023-11-18T13:40:44;7.90;;;5.00;;
72117;SDS011;59992;47.490;8.736;2023-11-18T13:43:13;9.00;;;5.50;;
72117;SDS011;59992;47.490;8.736;2023-11-18T13:45:40;7.80;;;5.30;;
72117;SDS011;59992;47.490;8.736;2023-11-18T13:48:09;8.70;;;4.60;;
72117;SDS011;59992;47.490;8.736;2023-11-18T13:50:41;9.90;;;5.30;;
72117;SDS011;59992;47.490;8.736;2023-11-18T13:53:10;8.50;;;5.20;;
72117;SDS011;59992;47.490;8.736;2023-11-18T13:55:39;7.30;;;4.80;;
72117;SDS011;59992;47.490;8.736;2023-11-18T13:58:07;8.00;;;5.10;;
72117;SDS011;59992;47.490;8.736;2023-11-18T14:00:36;10.30;;;6.20;;
72117;SDS011;59992;47.490;8.736;2023-11-18T14:03:03;9.10;;;5.50;;
72117;SDS011;59992;47.490;8.736;2023-11-18T14:05:33;7.10;;;4.40;;
72117;SDS011;59992;47.490;8.736;2023-11-18T14:08:01;7.70;;;5.10;;
72117;SDS011;59992;47.490;8.736;2023-11-18T14:10:34;6.90;;;4.30;;
72117;SDS011;59992;47.490;8.736;2023-11-18T14:13:04;6.70;;;3.70;;
72117;SDS011;59992;47.490;8.736;2023-11-18T14:15:32;4.30;;;3.10;;
72117;SDS011;59992;47.490;8.736;2023-11-18T14:18:02;4.00;;;2.90;;
72117;SDS011;59992;47.490;8.736;2023-11-18T14:20:30;4.90;;;3.00;;
72117;SDS011;59992;47.490;8.736;2023-11-18T14:22:57;2.80;;;2.00;;
72117;SDS011;59992;47.490;8.736;2023-11-18T14:25:24;6.60;;;2.40;;
72117;SDS011;59992;47.490;8.736;2023-11-18T14:27:53;5.20;;;2.90;;
72117;SDS011;59992;47.490;8.736;2023-11-18T14:30:21;3.50;;;2.60;;
72117;SDS011;59992;47.490;8.736;2023-11-18T14:32:50;4.30;;;2.40;;
72117;SDS011;59992;47.490;8.736;2023-11-18T14:35:18;3.90;;;2.10;;
72117;SDS011;59992;47.490;8.736;2023-11-18T14:37:46;2.80;;;2.00;;
72117;SDS011;59992;47.490;8.736;2023-11-18T14:40:14;3.80;;;1.80;;
72117;SDS011;59992;47.490;8.736;2023-11-18T14:42:42;3.80;;;2.20;;
72117;SDS011;59992;47.490;8.736;2023-11-18T14:45:13;4.80;;;2.40;;
72117;SDS011;59992;47.490;8.736;2023-11-18T14:47:41;3.10;;;2.20;;
72117;SDS011;59992;47.490;8.736;2023-11-18T14:50:11;4.40;;;3.10;;
72117;SDS011;59992;47.490;8.736;2023-11-18T14:52:44;3.40;;;2.90;;
72117;SDS011;59992;47.490;8.736;2023-11-18T14:55:11;5.60;;;4.10;;
72117;SDS011;59992;47.490;8.736;2023-11-18T14:57:40;4.50;;;2.90;;
72117;SDS011;59992;47.490;8.736;2023-11-18T15:00:11;4.20;;;3.10;;
72117;SDS011;59992;47.490;8.736;2023-11-18T15:02:46;4.70;;;3.20;;
72117;SDS011;59992;47.490;8.736;2023-11-18T15:05:14;4.30;;;3.00;;
72117;SDS011;59992;47.490;8.736;2023-11-18T15:07:48;4.80;;;3.00;;
72117;SDS011;59992;47.490;8.736;2023-11-18T15:10:18;5.30;;;3.60;;
72117;SDS011;59992;47.490;8.736;2023-11-18T15:12:47;5.10;;;3.30;;
72117;SDS011;59992;47.490;8.736;2023-11-18T15:15:19;4.50;;;2.90;;
72117;SDS011;59992;47.490;8.736;2023-11-18T15:17:48;4.40;;;2.50;;
72117;SDS011;59992;47.490;8.736;2023-11-18T15:20:16;3.20;;;2.20;;
72117;SDS011;59992;47.490;8.736;2023-11-18T15:22:44;4.20;;;2.30;;
72117;SDS011;59992;47.490;8.736;2023-11-18T15:25:12;3.70;;;2.40;;
72117;SDS011;59992;47.490;8.736;2023-11-18T15:27:43;3.30;;;2.30;;
72117;SDS011;59992;47.490;8.736;2023-11-18T15:30:12;5.90;;;2.30;;
72117;SDS011;59992;47.490;8.736;2023-11-18T15:32:41;3.90;;;1.70;;
72117;SDS011;59992;47.490;8.736;2023-11-18T15:35:09;1.80;;;1.10;;
72117;SDS011;59992;47.490;8.736;2023-11-18T15:37:39;2.90;;;1.00;;
72117;SDS011;59992;47.490;8.736;2023-11-18T15:40:08;2.30;;;1.10;;
72117;SDS011;59992;47.490;8.736;2023-11-18T15:42:42;3.30;;;1.20;;
72117;SDS011;59992;47.490;8.736;2023-11-18T15:45:20;5.20;;;1.40;;
72117;SDS011;59992;47.490;8.736;2023-11-18T15:47:50;6.60;;;1.60;;
72117;SDS011;59992;47.490;8.736;2023-11-18T15:50:19;2.70;;;1.50;;
72117;SDS011;59992;47.490;8.736;2023-11-18T15:52:50;2.00;;;1.10;;
72117;SDS011;59992;47.490;8.736;2023-11-18T15:55:18;2.10;;;1.00;;
72117;SDS011;59992;47.490;8.736;2023-11-18T15:57:47;2.40;;;1.20;;
72117;SDS011;59992;47.490;8.736;2023-11-18T16:00:19;2.00;;;1.10;;
72117;SDS011;59992;47.490;8.736;2023-11-18T16:02:49;2.60;;;1.50;;
72117;SDS011;59992;47.490;8.736;2023-11-18T16:05:18;3.90;;;1.60;;
72117;SDS011;59992;47.490;8.736;2023-11-18T16:07:47;5.40;;;3.00;;
72117;SDS011;59992;47.490;8.736;2023-11-18T16:10:17;15.00;;;8.70;;
72117;SDS011;59992;47.490;8.736;2023-11-18T16:12:48;18.00;;;10.10;;
72117;SDS011;59992;47.490;8.736;2023-11-18T16:15:17;15.90;;;9.60;;
72117;SDS011;59992;47.490;8.736;2023-11-18T16:17:46;9.50;;;5.80;;
72117;SDS011;59992;47.490;8.736;2023-11-18T16:20:13;4.00;;;2.30;;
72117;SDS011;59992;47.490;8.736;2023-11-18T16:22:42;4.70;;;1.70;;
72117;SDS011;59992;47.490;8.736;2023-11-18T16:25:14;3.20;;;1.80;;
72117;SDS011;59992;47.490;8.736;2023-11-18T16:27:57;2.70;;;1.30;;
72117;SDS011;59992;47.490;8.736;2023-11-18T16:30:26;2.10;;;1.30;;
72117;SDS011;59992;47.490;8.736;2023-11-18T16:32:55;3.80;;;1.30;;
72117;SDS011;59992;47.490;8.736;2023-11-18T16:35:24;2.80;;;1.50;;
72117;SDS011;59992;47.490;8.736;2023-11-18T16:37:56;2.50;;;1.10;;
72117;SDS011;59992;47.490;8.736;2023-11-18T16:40:27;2.40;;;1.30;;
72117;SDS011;59992;47.490;8.736;2023-11-18T16:43:04;2.10;;;1.20;;
72117;SDS011;59992;47.490;8.736;2023-11-18T16:45:31;4.40;;;1.50;;
72117;SDS011;59992;47.490;8.736;2023-11-18T16:47:59;2.80;;;1.60;;